sensor_id;sensor_type;location;lat;lon;timestamp;P1;durP1;ratioP1;P2;durP2;ratioP2
37205;SDS011;23099;42.636;23.198;2023-06-22T00:01:33;16.35;;;5.82;;
37205;SDS011;23099;42.636;23.198;2023-06-22T00:04:00;10.27;;;5.25;;
37205;SDS011;23099;42.636;23.198;2023-06-22T00:06:26;9.70;;;5.18;;
37205;SDS011;23099;42.636;23.198;2023-06-22T00:08:53;14.25;;;6.53;;
37205;SDS011;23099;42.636;23.198;2023-06-22T00:11:21;9.93;;;5.70;;
37205;SDS011;23099;42.636;23.198;2023-06-22T00:16:16;11.65;;;6.05;;
37205;SDS011;23099;42.636;23.198;2023-06-22T00:18:42;10.13;;;5.95;;
37205;SDS011;23099;42.636;23.198;2023-06-22T00:21:12;9.80;;;6.50;;
37205;SDS011;23099;42.636;23.198;2023-06-22T00:23:38;10.73;;;6.30;;
37205;SDS011;23099;42.636;23.198;2023-06-22T00:26:06;10.32;;;6.03;;
37205;SDS011;23099;42.636;23.198;2023-06-22T00:28:34;10.07;;;6.40;;
37205;SDS011;23099;42.636;23.198;2023-06-22T00:31:01;11.38;;;6.53;;
37205;SDS011;23099;42.636;23.198;2023-06-22T00:33:28;10.95;;;6.65;;
37205;SDS011;23099;42.636;23.198;2023-06-22T00:35:54;9.23;;;6.00;;
37205;SDS011;23099;42.636;23.198;2023-06-22T00:38:21;11.60;;;6.45;;
37205;SDS011;23099;42.636;23.198;2023-06-22T00:40:48;10.77;;;5.70;;
37205;SDS011;23099;42.636;23.198;2023-06-22T00:43:15;10.65;;;6.05;;
37205;SDS011;23099;42.636;23.198;2023-06-22T00:45:43;10.60;;;6.10;;
37205;SDS011;23099;42.636;23.198;2023-06-22T00:48:09;10.90;;;6.38;;
37205;SDS011;23099;42.636;23.198;2023-06-22T00:50:38;11.82;;;6.50;;
37205;SDS011;23099;42.636;23.198;2023-06-22T00:53:06;9.40;;;5.50;;
37205;SDS011;23099;42.636;23.198;2023-06-22T00:55:35;11.57;;;6.25;;
37205;SDS011;23099;42.636;23.198;2023-06-22T00:58:03;10.57;;;5.93;;
37205;SDS011;23099;42.636;23.198;2023-06-22T01:00:33;9.57;;;6.22;;
37205;SDS011;23099;42.636;23.198;2023-06-22T01:03:01;11.15;;;5.55;;
37205;SDS011;23099;42.636;23.198;2023-06-22T01:05:29;12.38;;;6.57;;
37205;SDS011;23099;42.636;23.198;2023-06-22T01:08:04;11.25;;;6.60;;
37205;SDS011;23099;42.636;23.198;2023-06-22T01:10:36;10.45;;;6.35;;
37205;SDS011;23099;42.636;23.198;2023-06-22T01:13:11;10.40;;;6.07;;
37205;SDS011;23099;42.636;23.198;2023-06-22T01:15:45;9.70;;;5.88;;
37205;SDS011;23099;42.636;23.198;2023-06-22T01:18:18;11.07;;;6.30;;
37205;SDS011;23099;42.636;23.198;2023-06-22T01:20:50;10.82;;;6.65;;
37205;SDS011;23099;42.636;23.198;2023-06-22T01:23:21;10.27;;;6.50;;
37205;SDS011;23099;42.636;23.198;2023-06-22T01:25:56;11.07;;;6.43;;
37205;SDS011;23099;42.636;23.198;2023-06-22T01:28:37;13.32;;;6.18;;
37205;SDS011;23099;42.636;23.198;2023-06-22T01:31:08;9.70;;;5.75;;
37205;SDS011;23099;42.636;23.198;2023-06-22T01:33:39;11.43;;;6.47;;
37205;SDS011;23099;42.636;23.198;2023-06-22T01:36:09;12.98;;;6.55;;
37205;SDS011;23099;42.636;23.198;2023-06-22T01:38:36;9.20;;;5.97;;
37205;SDS011;23099;42.636;23.198;2023-06-22T01:41:03;10.80;;;6.28;;
37205;SDS011;23099;42.636;23.198;2023-06-22T01:43:31;9.63;;;6.20;;
37205;SDS011;23099;42.636;23.198;2023-06-22T01:46:02;11.13;;;6.32;;
37205;SDS011;23099;42.636;23.198;2023-06-22T01:48:30;11.75;;;6.55;;
37205;SDS011;23099;42.636;23.198;2023-06-22T01:50:57;9.73;;;6.47;;
37205;SDS011;23099;42.636;23.198;2023-06-22T01:53:24;11.00;;;6.18;;
37205;SDS011;23099;42.636;23.198;2023-06-22T01:55:51;9.40;;;6.05;;
37205;SDS011;23099;42.636;23.198;2023-06-22T01:58:18;11.90;;;6.32;;
37205;SDS011;23099;42.636;23.198;2023-06-22T02:03:19;10.55;;;6.65;;
37205;SDS011;23099;42.636;23.198;2023-06-22T02:05:48;11.55;;;6.32;;
37205;SDS011;23099;42.636;23.198;2023-06-22T02:08:19;11.95;;;6.30;;
37205;SDS011;23099;42.636;23.198;2023-06-22T02:10:48;13.50;;;6.95;;
37205;SDS011;23099;42.636;23.198;2023-06-22T02:13:16;11.05;;;6.78;;
37205;SDS011;23099;42.636;23.198;2023-06-22T02:15:44;10.85;;;6.95;;
37205;SDS011;23099;42.636;23.198;2023-06-22T02:18:12;11.35;;;7.20;;
37205;SDS011;23099;42.636;23.198;2023-06-22T02:20:40;10.38;;;6.57;;
37205;SDS011;23099;42.636;23.198;2023-06-22T02:23:07;10.18;;;6.70;;
37205;SDS011;23099;42.636;23.198;2023-06-22T02:25:34;11.13;;;6.60;;
37205;SDS011;23099;42.636;23.198;2023-06-22T02:28:01;12.35;;;7.43;;
37205;SDS011;23099;42.636;23.198;2023-06-22T02:30:28;10.07;;;6.43;;
37205;SDS011;23099;42.636;23.198;2023-06-22T02:32:55;10.85;;;6.90;;
37205;SDS011;23099;42.636;23.198;2023-06-22T02:35:24;12.02;;;7.32;;
37205;SDS011;23099;42.636;23.198;2023-06-22T02:37:53;13.25;;;7.47;;
37205;SDS011;23099;42.636;23.198;2023-06-22T02:40:19;12.23;;;7.18;;
37205;SDS011;23099;42.636;23.198;2023-06-22T02:42:46;12.00;;;7.18;;
37205;SDS011;23099;42.636;23.198;2023-06-22T02:45:13;12.23;;;7.68;;
37205;SDS011;23099;42.636;23.198;2023-06-22T02:47:40;11.27;;;6.57;;
37205;SDS011;23099;42.636;23.198;2023-06-22T02:50:07;10.60;;;6.88;;
37205;SDS011;23099;42.636;23.198;2023-06-22T02:52:34;13.57;;;7.77;;
37205;SDS011;23099;42.636;23.198;2023-06-22T02:55:02;14.38;;;7.88;;
37205;SDS011;23099;42.636;23.198;2023-06-22T02:57:29;12.88;;;8.32;;
37205;SDS011;23099;42.636;23.198;2023-06-22T02:59:56;10.90;;;7.28;;
37205;SDS011;23099;42.636;23.198;2023-06-22T03:02:22;13.88;;;7.32;;
37205;SDS011;23099;42.636;23.198;2023-06-22T03:04:51;11.57;;;7.15;;
37205;SDS011;23099;42.636;23.198;2023-06-22T03:07:18;11.90;;;7.70;;
37205;SDS011;23099;42.636;23.198;2023-06-22T03:09:45;14.52;;;8.07;;
37205;SDS011;23099;42.636;23.198;2023-06-22T03:12:13;14.43;;;8.02;;
37205;SDS011;23099;42.636;23.198;2023-06-22T03:14:40;12.73;;;7.38;;
37205;SDS011;23099;42.636;23.198;2023-06-22T03:17:07;11.18;;;7.47;;
37205;SDS011;23099;42.636;23.198;2023-06-22T03:19:33;13.15;;;8.75;;
37205;SDS011;23099;42.636;23.198;2023-06-22T03:22:00;12.68;;;7.75;;
37205;SDS011;23099;42.636;23.198;2023-06-22T03:24:27;11.55;;;7.90;;
37205;SDS011;23099;42.636;23.198;2023-06-22T03:26:54;13.77;;;8.98;;
37205;SDS011;23099;42.636;23.198;2023-06-22T03:29:23;13.30;;;8.43;;
37205;SDS011;23099;42.636;23.198;2023-06-22T03:31:50;15.20;;;8.57;;
37205;SDS011;23099;42.636;23.198;2023-06-22T03:34:17;15.98;;;7.63;;
37205;SDS011;23099;42.636;23.198;2023-06-22T03:36:44;11.18;;;6.97;;
37205;SDS011;23099;42.636;23.198;2023-06-22T03:39:11;13.90;;;8.15;;
37205;SDS011;23099;42.636;23.198;2023-06-22T03:41:38;13.23;;;8.05;;
37205;SDS011;23099;42.636;23.198;2023-06-22T03:44:05;13.02;;;8.02;;
37205;SDS011;23099;42.636;23.198;2023-06-22T03:46:33;11.00;;;7.80;;
37205;SDS011;23099;42.636;23.198;2023-06-22T03:48:59;15.30;;;7.93;;
37205;SDS011;23099;42.636;23.198;2023-06-22T03:51:28;12.30;;;8.32;;
37205;SDS011;23099;42.636;23.198;2023-06-22T03:53:54;12.25;;;7.82;;
37205;SDS011;23099;42.636;23.198;2023-06-22T03:56:21;13.05;;;8.00;;
37205;SDS011;23099;42.636;23.198;2023-06-22T03:58:48;11.65;;;8.20;;
37205;SDS011;23099;42.636;23.198;2023-06-22T04:01:15;14.45;;;9.18;;
37205;SDS011;23099;42.636;23.198;2023-06-22T04:03:43;13.32;;;8.48;;
37205;SDS011;23099;42.636;23.198;2023-06-22T04:06:10;13.73;;;9.10;;
37205;SDS011;23099;42.636;23.198;2023-06-22T04:08:36;14.38;;;8.52;;
37205;SDS011;23099;42.636;23.198;2023-06-22T04:11:03;12.40;;;8.45;;
37205;SDS011;23099;42.636;23.198;2023-06-22T04:13:30;12.25;;;8.32;;
37205;SDS011;23099;42.636;23.198;2023-06-22T04:15:56;13.38;;;8.48;;
37205;SDS011;23099;42.636;23.198;2023-06-22T04:18:23;13.98;;;9.10;;
37205;SDS011;23099;42.636;23.198;2023-06-22T04:20:51;12.60;;;9.23;;
37205;SDS011;23099;42.636;23.198;2023-06-22T04:23:18;16.25;;;9.50;;
37205;SDS011;23099;42.636;23.198;2023-06-22T04:25:44;12.15;;;8.45;;
37205;SDS011;23099;42.636;23.198;2023-06-22T04:28:11;12.90;;;9.35;;
37205;SDS011;23099;42.636;23.198;2023-06-22T04:30:38;15.15;;;10.43;;
37205;SDS011;23099;42.636;23.198;2023-06-22T04:33:11;15.73;;;11.07;;
37205;SDS011;23099;42.636;23.198;2023-06-22T04:35:38;15.18;;;10.68;;
37205;SDS011;23099;42.636;23.198;2023-06-22T04:38:07;19.45;;;11.15;;
37205;SDS011;23099;42.636;23.198;2023-06-22T04:40:34;14.90;;;10.70;;
37205;SDS011;23099;42.636;23.198;2023-06-22T04:43:01;15.55;;;10.23;;
37205;SDS011;23099;42.636;23.198;2023-06-22T04:45:28;13.73;;;9.75;;
37205;SDS011;23099;42.636;23.198;2023-06-22T04:47:55;14.02;;;9.65;;
37205;SDS011;23099;42.636;23.198;2023-06-22T04:50:22;15.32;;;10.00;;
37205;SDS011;23099;42.636;23.198;2023-06-22T04:52:49;14.57;;;9.18;;
37205;SDS011;23099;42.636;23.198;2023-06-22T04:55:18;14.45;;;10.15;;
37205;SDS011;23099;42.636;23.198;2023-06-22T04:57:46;14.30;;;10.48;;
37205;SDS011;23099;42.636;23.198;2023-06-22T05:00:14;18.15;;;10.70;;
37205;SDS011;23099;42.636;23.198;2023-06-22T05:02:43;15.18;;;10.55;;
37205;SDS011;23099;42.636;23.198;2023-06-22T05:05:10;19.13;;;10.50;;
37205;SDS011;23099;42.636;23.198;2023-06-22T05:07:39;15.27;;;10.35;;
37205;SDS011;23099;42.636;23.198;2023-06-22T05:10:09;14.32;;;10.05;;
37205;SDS011;23099;42.636;23.198;2023-06-22T05:12:38;16.70;;;9.82;;
37205;SDS011;23099;42.636;23.198;2023-06-22T05:15:06;14.70;;;10.05;;
37205;SDS011;23099;42.636;23.198;2023-06-22T05:20:00;14.60;;;9.88;;
37205;SDS011;23099;42.636;23.198;2023-06-22T05:22:27;15.77;;;10.57;;
37205;SDS011;23099;42.636;23.198;2023-06-22T05:24:54;13.85;;;9.43;;
37205;SDS011;23099;42.636;23.198;2023-06-22T05:27:21;15.68;;;9.20;;
37205;SDS011;23099;42.636;23.198;2023-06-22T05:29:49;17.02;;;9.68;;
37205;SDS011;23099;42.636;23.198;2023-06-22T05:32:15;12.57;;;8.55;;
37205;SDS011;23099;42.636;23.198;2023-06-22T05:34:42;14.50;;;9.23;;
37205;SDS011;23099;42.636;23.198;2023-06-22T05:37:09;16.42;;;9.60;;
37205;SDS011;23099;42.636;23.198;2023-06-22T05:39:35;15.00;;;9.52;;
37205;SDS011;23099;42.636;23.198;2023-06-22T05:42:04;17.02;;;9.68;;
37205;SDS011;23099;42.636;23.198;2023-06-22T05:44:31;12.85;;;9.40;;
37205;SDS011;23099;42.636;23.198;2023-06-22T05:47:00;17.63;;;9.38;;
37205;SDS011;23099;42.636;23.198;2023-06-22T05:49:27;17.75;;;9.57;;
37205;SDS011;23099;42.636;23.198;2023-06-22T05:51:57;13.07;;;9.10;;
37205;SDS011;23099;42.636;23.198;2023-06-22T05:54:24;19.40;;;9.35;;
37205;SDS011;23099;42.636;23.198;2023-06-22T05:56:51;13.85;;;9.57;;
37205;SDS011;23099;42.636;23.198;2023-06-22T05:59:18;16.08;;;9.30;;
37205;SDS011;23099;42.636;23.198;2023-06-22T06:01:45;14.88;;;8.88;;
37205;SDS011;23099;42.636;23.198;2023-06-22T06:04:16;13.48;;;8.30;;
37205;SDS011;23099;42.636;23.198;2023-06-22T06:06:43;13.80;;;8.57;;
37205;SDS011;23099;42.636;23.198;2023-06-22T06:09:10;13.30;;;8.27;;
37205;SDS011;23099;42.636;23.198;2023-06-22T06:11:37;12.97;;;9.10;;
37205;SDS011;23099;42.636;23.198;2023-06-22T06:14:04;12.80;;;8.55;;
37205;SDS011;23099;42.636;23.198;2023-06-22T06:16:30;10.98;;;8.43;;
37205;SDS011;23099;42.636;23.198;2023-06-22T06:18:57;12.52;;;8.63;;
37205;SDS011;23099;42.636;23.198;2023-06-22T06:21:26;15.18;;;8.73;;
37205;SDS011;23099;42.636;23.198;2023-06-22T06:23:52;14.65;;;8.85;;
37205;SDS011;23099;42.636;23.198;2023-06-22T06:26:19;11.00;;;8.38;;
37205;SDS011;23099;42.636;23.198;2023-06-22T06:28:55;12.57;;;8.15;;
37205;SDS011;23099;42.636;23.198;2023-06-22T06:31:22;12.90;;;8.80;;
37205;SDS011;23099;42.636;23.198;2023-06-22T06:33:48;11.40;;;8.52;;
37205;SDS011;23099;42.636;23.198;2023-06-22T06:36:15;14.50;;;9.25;;
37205;SDS011;23099;42.636;23.198;2023-06-22T06:38:43;12.93;;;8.98;;
37205;SDS011;23099;42.636;23.198;2023-06-22T06:41:12;13.90;;;9.20;;
37205;SDS011;23099;42.636;23.198;2023-06-22T06:43:39;12.43;;;8.70;;
37205;SDS011;23099;42.636;23.198;2023-06-22T06:46:05;12.57;;;9.07;;
37205;SDS011;23099;42.636;23.198;2023-06-22T06:48:32;13.00;;;9.05;;
37205;SDS011;23099;42.636;23.198;2023-06-22T06:50:59;11.75;;;8.80;;
37205;SDS011;23099;42.636;23.198;2023-06-22T06:53:25;18.63;;;9.45;;
37205;SDS011;23099;42.636;23.198;2023-06-22T06:55:54;12.63;;;9.30;;
37205;SDS011;23099;42.636;23.198;2023-06-22T07:00:48;12.48;;;8.52;;
37205;SDS011;23099;42.636;23.198;2023-06-22T07:03:14;13.90;;;9.25;;
37205;SDS011;23099;42.636;23.198;2023-06-22T07:05:41;12.73;;;8.98;;
37205;SDS011;23099;42.636;23.198;2023-06-22T07:08:08;17.08;;;9.65;;
37205;SDS011;23099;42.636;23.198;2023-06-22T07:10:34;14.25;;;9.55;;
37205;SDS011;23099;42.636;23.198;2023-06-22T07:13:02;17.13;;;9.93;;
37205;SDS011;23099;42.636;23.198;2023-06-22T07:15:29;15.27;;;9.27;;
37205;SDS011;23099;42.636;23.198;2023-06-22T07:17:56;14.63;;;9.15;;
37205;SDS011;23099;42.636;23.198;2023-06-22T07:20:22;18.13;;;10.20;;
37205;SDS011;23099;42.636;23.198;2023-06-22T07:22:51;12.48;;;9.55;;
37205;SDS011;23099;42.636;23.198;2023-06-22T07:25:17;13.90;;;9.85;;
37205;SDS011;23099;42.636;23.198;2023-06-22T07:27:44;13.50;;;9.55;;
37205;SDS011;23099;42.636;23.198;2023-06-22T07:30:14;12.50;;;8.52;;
37205;SDS011;23099;42.636;23.198;2023-06-22T07:32:41;18.60;;;9.75;;
37205;SDS011;23099;42.636;23.198;2023-06-22T07:35:08;11.98;;;8.50;;
37205;SDS011;23099;42.636;23.198;2023-06-22T07:37:35;15.65;;;9.20;;
37205;SDS011;23099;42.636;23.198;2023-06-22T07:40:02;11.73;;;8.70;;
37205;SDS011;23099;42.636;23.198;2023-06-22T07:42:31;11.48;;;8.27;;
37205;SDS011;23099;42.636;23.198;2023-06-22T07:44:59;14.05;;;8.75;;
37205;SDS011;23099;42.636;23.198;2023-06-22T07:47:28;12.95;;;8.57;;
37205;SDS011;23099;42.636;23.198;2023-06-22T07:49:54;14.32;;;9.18;;
37205;SDS011;23099;42.636;23.198;2023-06-22T07:52:23;13.98;;;9.45;;
37205;SDS011;23099;42.636;23.198;2023-06-22T07:54:50;11.82;;;8.95;;
37205;SDS011;23099;42.636;23.198;2023-06-22T07:57:17;12.88;;;9.27;;
37205;SDS011;23099;42.636;23.198;2023-06-22T07:59:44;12.07;;;9.15;;
37205;SDS011;23099;42.636;23.198;2023-06-22T08:02:11;13.60;;;10.02;;
37205;SDS011;23099;42.636;23.198;2023-06-22T08:04:39;14.55;;;10.52;;
37205;SDS011;23099;42.636;23.198;2023-06-22T08:07:06;13.05;;;9.90;;
37205;SDS011;23099;42.636;23.198;2023-06-22T08:09:33;13.35;;;10.30;;
37205;SDS011;23099;42.636;23.198;2023-06-22T08:12:00;12.90;;;10.57;;
37205;SDS011;23099;42.636;23.198;2023-06-22T08:14:26;16.10;;;10.07;;
37205;SDS011;23099;42.636;23.198;2023-06-22T08:16:54;12.50;;;10.43;;
37205;SDS011;23099;42.636;23.198;2023-06-22T08:19:20;12.40;;;10.60;;
37205;SDS011;23099;42.636;23.198;2023-06-22T08:21:49;14.48;;;11.23;;
37205;SDS011;23099;42.636;23.198;2023-06-22T08:26:42;16.13;;;11.25;;
37205;SDS011;23099;42.636;23.198;2023-06-22T08:29:08;14.35;;;11.50;;
37205;SDS011;23099;42.636;23.198;2023-06-22T08:31:35;17.35;;;10.88;;
37205;SDS011;23099;42.636;23.198;2023-06-22T08:34:02;14.07;;;10.75;;
37205;SDS011;23099;42.636;23.198;2023-06-22T08:36:29;12.60;;;9.90;;
37205;SDS011;23099;42.636;23.198;2023-06-22T08:38:59;13.90;;;10.30;;
37205;SDS011;23099;42.636;23.198;2023-06-22T08:41:26;13.88;;;10.43;;
37205;SDS011;23099;42.636;23.198;2023-06-22T08:43:53;15.05;;;10.82;;
37205;SDS011;23099;42.636;23.198;2023-06-22T08:46:19;12.63;;;9.20;;
37205;SDS011;23099;42.636;23.198;2023-06-22T08:48:48;12.43;;;9.18;;
37205;SDS011;23099;42.636;23.198;2023-06-22T08:51:15;13.93;;;8.95;;
37205;SDS011;23099;42.636;23.198;2023-06-22T08:53:42;14.15;;;9.30;;
37205;SDS011;23099;42.636;23.198;2023-06-22T08:56:11;11.52;;;9.15;;
37205;SDS011;23099;42.636;23.198;2023-06-22T08:58:38;12.60;;;8.68;;
37205;SDS011;23099;42.636;23.198;2023-06-22T09:01:04;11.43;;;8.70;;
37205;SDS011;23099;42.636;23.198;2023-06-22T09:03:31;11.55;;;8.63;;
37205;SDS011;23099;42.636;23.198;2023-06-22T09:06:01;13.55;;;9.57;;
37205;SDS011;23099;42.636;23.198;2023-06-22T09:08:28;14.73;;;9.43;;
37205;SDS011;23099;42.636;23.198;2023-06-22T09:10:54;11.68;;;9.13;;
37205;SDS011;23099;42.636;23.198;2023-06-22T09:13:23;11.77;;;9.25;;
37205;SDS011;23099;42.636;23.198;2023-06-22T09:18:17;13.52;;;9.77;;
37205;SDS011;23099;42.636;23.198;2023-06-22T09:20:44;11.10;;;8.60;;
37205;SDS011;23099;42.636;23.198;2023-06-22T09:23:11;12.32;;;9.60;;
37205;SDS011;23099;42.636;23.198;2023-06-22T09:25:38;12.73;;;8.93;;
37205;SDS011;23099;42.636;23.198;2023-06-22T09:28:05;11.63;;;8.77;;
37205;SDS011;23099;42.636;23.198;2023-06-22T09:30:33;11.45;;;8.75;;
37205;SDS011;23099;42.636;23.198;2023-06-22T09:33:00;12.27;;;8.90;;
37205;SDS011;23099;42.636;23.198;2023-06-22T09:35:27;11.87;;;9.17;;
37205;SDS011;23099;42.636;23.198;2023-06-22T09:37:54;10.75;;;8.82;;
37205;SDS011;23099;42.636;23.198;2023-06-22T09:40:20;15.18;;;8.82;;
37205;SDS011;23099;42.636;23.198;2023-06-22T09:42:47;12.45;;;8.65;;
37205;SDS011;23099;42.636;23.198;2023-06-22T09:45:14;11.27;;;8.45;;
37205;SDS011;23099;42.636;23.198;2023-06-22T09:47:42;11.18;;;8.23;;
37205;SDS011;23099;42.636;23.198;2023-06-22T09:52:35;10.18;;;7.45;;
37205;SDS011;23099;42.636;23.198;2023-06-22T09:55:02;12.82;;;7.70;;
37205;SDS011;23099;42.636;23.198;2023-06-22T09:57:30;11.50;;;8.05;;
37205;SDS011;23099;42.636;23.198;2023-06-22T09:59:56;11.80;;;7.78;;
37205;SDS011;23099;42.636;23.198;2023-06-22T10:02:23;11.07;;;8.40;;
37205;SDS011;23099;42.636;23.198;2023-06-22T10:04:51;11.07;;;7.97;;
37205;SDS011;23099;42.636;23.198;2023-06-22T10:09:44;12.25;;;7.97;;
37205;SDS011;23099;42.636;23.198;2023-06-22T10:12:11;10.00;;;7.15;;
37205;SDS011;23099;42.636;23.198;2023-06-22T10:14:37;9.73;;;7.15;;
37205;SDS011;23099;42.636;23.198;2023-06-22T10:17:04;12.55;;;7.53;;
37205;SDS011;23099;42.636;23.198;2023-06-22T10:19:32;11.73;;;7.78;;
37205;SDS011;23099;42.636;23.198;2023-06-22T10:22:03;9.85;;;7.03;;
37205;SDS011;23099;42.636;23.198;2023-06-22T10:24:30;13.32;;;7.43;;
37205;SDS011;23099;42.636;23.198;2023-06-22T10:26:57;9.35;;;6.97;;
37205;SDS011;23099;42.636;23.198;2023-06-22T10:29:24;10.43;;;7.45;;
37205;SDS011;23099;42.636;23.198;2023-06-22T10:31:50;13.30;;;7.20;;
37205;SDS011;23099;42.636;23.198;2023-06-22T10:34:17;10.07;;;7.68;;
37205;SDS011;23099;42.636;23.198;2023-06-22T10:36:44;10.02;;;6.93;;
37205;SDS011;23099;42.636;23.198;2023-06-22T10:39:14;12.07;;;7.85;;
37205;SDS011;23099;42.636;23.198;2023-06-22T10:44:08;13.20;;;8.15;;
37205;SDS011;23099;42.636;23.198;2023-06-22T10:46:34;9.85;;;7.38;;
37205;SDS011;23099;42.636;23.198;2023-06-22T10:49:01;12.77;;;6.97;;
37205;SDS011;23099;42.636;23.198;2023-06-22T10:51:28;11.05;;;6.55;;
37205;SDS011;23099;42.636;23.198;2023-06-22T10:53:56;12.90;;;7.50;;
37205;SDS011;23099;42.636;23.198;2023-06-22T10:56:24;11.43;;;6.95;;
37205;SDS011;23099;42.636;23.198;2023-06-22T10:58:51;11.77;;;6.63;;
37205;SDS011;23099;42.636;23.198;2023-06-22T11:01:17;10.40;;;6.68;;
37205;SDS011;23099;42.636;23.198;2023-06-22T11:03:44;12.45;;;6.88;;
37205;SDS011;23099;42.636;23.198;2023-06-22T11:06:11;8.93;;;6.97;;
37205;SDS011;23099;42.636;23.198;2023-06-22T11:08:37;9.18;;;6.78;;
37205;SDS011;23099;42.636;23.198;2023-06-22T11:11:04;10.00;;;6.80;;
37205;SDS011;23099;42.636;23.198;2023-06-22T11:13:32;9.90;;;6.60;;
37205;SDS011;23099;42.636;23.198;2023-06-22T11:15:59;9.88;;;6.60;;
37205;SDS011;23099;42.636;23.198;2023-06-22T11:18:25;9.02;;;6.68;;
37205;SDS011;23099;42.636;23.198;2023-06-22T11:20:52;10.77;;;6.85;;
37205;SDS011;23099;42.636;23.198;2023-06-22T11:23:19;8.88;;;7.00;;
37205;SDS011;23099;42.636;23.198;2023-06-22T11:25:45;10.60;;;7.13;;
37205;SDS011;23099;42.636;23.198;2023-06-22T11:28:12;8.82;;;6.53;;
37205;SDS011;23099;42.636;23.198;2023-06-22T11:30:40;13.23;;;7.47;;
37205;SDS011;23099;42.636;23.198;2023-06-22T11:33:07;10.15;;;6.78;;
37205;SDS011;23099;42.636;23.198;2023-06-22T11:35:34;10.73;;;7.22;;
37205;SDS011;23099;42.636;23.198;2023-06-22T11:38:00;9.52;;;7.13;;
37205;SDS011;23099;42.636;23.198;2023-06-22T11:42:55;11.15;;;7.18;;
37205;SDS011;23099;42.636;23.198;2023-06-22T11:45:21;10.38;;;7.15;;
37205;SDS011;23099;42.636;23.198;2023-06-22T11:47:49;10.27;;;7.10;;
37205;SDS011;23099;42.636;23.198;2023-06-22T11:50:16;10.02;;;7.45;;
37205;SDS011;23099;42.636;23.198;2023-06-22T11:52:43;11.88;;;6.97;;
37205;SDS011;23099;42.636;23.198;2023-06-22T11:55:10;11.05;;;7.05;;
37205;SDS011;23099;42.636;23.198;2023-06-22T11:57:37;10.95;;;7.32;;
37205;SDS011;23099;42.636;23.198;2023-06-22T12:00:05;10.30;;;6.70;;
37205;SDS011;23099;42.636;23.198;2023-06-22T12:02:39;9.70;;;6.68;;
37205;SDS011;23099;42.636;23.198;2023-06-22T12:05:08;8.35;;;6.28;;
37205;SDS011;23099;42.636;23.198;2023-06-22T12:07:34;12.50;;;7.65;;
37205;SDS011;23099;42.636;23.198;2023-06-22T12:10:02;10.90;;;7.63;;
37205;SDS011;23099;42.636;23.198;2023-06-22T12:12:29;9.48;;;6.97;;
37205;SDS011;23099;42.636;23.198;2023-06-22T12:14:56;11.73;;;7.68;;
37205;SDS011;23099;42.636;23.198;2023-06-22T12:17:23;10.57;;;7.07;;
37205;SDS011;23099;42.636;23.198;2023-06-22T12:19:49;11.02;;;7.60;;
37205;SDS011;23099;42.636;23.198;2023-06-22T12:22:17;11.85;;;8.10;;
37205;SDS011;23099;42.636;23.198;2023-06-22T12:24:44;12.55;;;8.02;;
37205;SDS011;23099;42.636;23.198;2023-06-22T12:27:11;12.73;;;8.05;;
37205;SDS011;23099;42.636;23.198;2023-06-22T12:29:37;16.90;;;9.52;;
37205;SDS011;23099;42.636;23.198;2023-06-22T12:32:04;12.07;;;9.13;;
37205;SDS011;23099;42.636;23.198;2023-06-22T12:34:31;12.77;;;9.27;;
37205;SDS011;23099;42.636;23.198;2023-06-22T12:36:58;13.00;;;8.98;;
37205;SDS011;23099;42.636;23.198;2023-06-22T12:39:26;14.30;;;9.45;;
37205;SDS011;23099;42.636;23.198;2023-06-22T12:44:19;14.38;;;8.15;;
37205;SDS011;23099;42.636;23.198;2023-06-22T12:46:46;16.35;;;9.35;;
37205;SDS011;23099;42.636;23.198;2023-06-22T12:49:12;16.05;;;9.10;;
37205;SDS011;23099;42.636;23.198;2023-06-22T12:51:39;14.20;;;9.27;;
37205;SDS011;23099;42.636;23.198;2023-06-22T12:54:07;19.95;;;10.60;;
37205;SDS011;23099;42.636;23.198;2023-06-22T12:56:35;14.60;;;9.63;;
37205;SDS011;23099;42.636;23.198;2023-06-22T12:59:03;20.52;;;10.98;;
37205;SDS011;23099;42.636;23.198;2023-06-22T13:03:58;17.23;;;7.68;;
37205;SDS011;23099;42.636;23.198;2023-06-22T13:06:25;18.65;;;9.25;;
37205;SDS011;23099;42.636;23.198;2023-06-22T13:08:51;16.15;;;8.27;;
37205;SDS011;23099;42.636;23.198;2023-06-22T13:11:18;14.93;;;8.00;;
37205;SDS011;23099;42.636;23.198;2023-06-22T13:13:46;15.40;;;8.65;;
37205;SDS011;23099;42.636;23.198;2023-06-22T13:16:13;17.05;;;9.23;;
37205;SDS011;23099;42.636;23.198;2023-06-22T13:18:39;13.95;;;8.60;;
37205;SDS011;23099;42.636;23.198;2023-06-22T13:34:04;16.17;;;8.57;;
37205;SDS011;23099;42.636;23.198;2023-06-22T13:36:31;17.20;;;7.85;;
37205;SDS011;23099;42.636;23.198;2023-06-22T13:38:58;12.60;;;7.77;;
37205;SDS011;23099;42.636;23.198;2023-06-22T13:41:25;14.68;;;7.93;;
37205;SDS011;23099;42.636;23.198;2023-06-22T13:43:51;15.40;;;8.27;;
37205;SDS011;23099;42.636;23.198;2023-06-22T13:46:18;13.85;;;7.82;;
37205;SDS011;23099;42.636;23.198;2023-06-22T13:48:45;16.05;;;7.97;;
37205;SDS011;23099;42.636;23.198;2023-06-22T13:51:13;16.10;;;9.27;;
37205;SDS011;23099;42.636;23.198;2023-06-22T13:53:39;15.23;;;8.88;;
37205;SDS011;23099;42.636;23.198;2023-06-22T13:56:06;14.80;;;9.10;;
37205;SDS011;23099;42.636;23.198;2023-06-22T13:58:33;13.30;;;8.95;;
37205;SDS011;23099;42.636;23.198;2023-06-22T14:00:59;15.75;;;8.73;;
37205;SDS011;23099;42.636;23.198;2023-06-22T14:03:26;13.50;;;8.73;;
37205;SDS011;23099;42.636;23.198;2023-06-22T14:05:53;12.95;;;7.38;;
37205;SDS011;23099;42.636;23.198;2023-06-22T14:08:22;14.73;;;9.18;;
37205;SDS011;23099;42.636;23.198;2023-06-22T14:10:50;15.80;;;8.15;;
37205;SDS011;23099;42.636;23.198;2023-06-22T14:13:18;17.52;;;9.27;;
37205;SDS011;23099;42.636;23.198;2023-06-22T14:15:45;14.38;;;9.25;;
37205;SDS011;23099;42.636;23.198;2023-06-22T14:18:13;13.00;;;8.82;;
37205;SDS011;23099;42.636;23.198;2023-06-22T14:20:40;12.68;;;8.57;;
37205;SDS011;23099;42.636;23.198;2023-06-22T14:23:07;13.93;;;9.15;;
37205;SDS011;23099;42.636;23.198;2023-06-22T14:25:35;15.10;;;9.00;;
37205;SDS011;23099;42.636;23.198;2023-06-22T14:28:01;13.18;;;8.93;;
37205;SDS011;23099;42.636;23.198;2023-06-22T14:30:28;14.63;;;9.25;;
37205;SDS011;23099;42.636;23.198;2023-06-22T14:32:55;16.85;;;9.20;;
37205;SDS011;23099;42.636;23.198;2023-06-22T14:35:21;15.55;;;10.40;;
37205;SDS011;23099;42.636;23.198;2023-06-22T14:37:49;13.82;;;9.57;;
37205;SDS011;23099;42.636;23.198;2023-06-22T14:40:16;14.13;;;9.63;;
37205;SDS011;23099;42.636;23.198;2023-06-22T14:42:44;17.58;;;9.65;;
37205;SDS011;23099;42.636;23.198;2023-06-22T14:45:10;15.38;;;10.50;;
37205;SDS011;23099;42.636;23.198;2023-06-22T14:47:38;15.70;;;11.90;;
37205;SDS011;23099;42.636;23.198;2023-06-22T14:50:05;14.73;;;11.48;;
37205;SDS011;23099;42.636;23.198;2023-06-22T14:52:32;15.38;;;11.20;;
37205;SDS011;23099;42.636;23.198;2023-06-22T14:54:59;15.80;;;10.57;;
37205;SDS011;23099;42.636;23.198;2023-06-22T14:57:25;14.52;;;10.75;;
37205;SDS011;23099;42.636;23.198;2023-06-22T14:59:53;15.35;;;10.82;;
37205;SDS011;23099;42.636;23.198;2023-06-22T15:02:20;14.90;;;10.73;;
37205;SDS011;23099;42.636;23.198;2023-06-22T15:04:47;13.63;;;11.43;;